createdAt,value
2022-10-11T00:00:40.764Z,52.45
2022-10-11T00:01:40.778Z,49.47
2022-10-11T00:02:40.746Z,50.38
2022-10-11T00:03:40.756Z,53.93
2022-10-11T00:04:40.736Z,51.11
2022-10-11T00:05:40.720Z,54.46
2022-10-11T00:06:40.721Z,51.28
2022-10-11T00:07:40.721Z,51.08
2022-10-11T00:08:40.710Z,54.63
2022-10-11T00:09:40.697Z,55.29
2022-10-11T00:10:40.696Z,53.96
2022-10-11T00:11:40.684Z,48.05
2022-10-11T00:12:40.676Z,57.51
2022-10-11T00:13:40.692Z,51.37
2022-10-11T00:14:40.664Z,48.40
2022-10-11T00:15:40.657Z,54.13
2022-10-11T00:16:40.656Z,55.21
2022-10-11T00:17:40.647Z,55.45
2022-10-11T00:18:40.655Z,53.89
2022-10-11T00:19:40.631Z,49.29
2022-10-11T00:20:40.631Z,50.69
2022-10-11T00:21:40.615Z,47.31
2022-10-11T00:22:40.619Z,51.87
2022-10-11T00:23:40.610Z,53.89
2022-10-11T00:24:40.608Z,51.96
2022-10-11T00:25:40.595Z,53.81
2022-10-11T00:26:45.698Z,48.65
2022-10-11T00:27:42.584Z,53.44
2022-10-11T00:28:40.632Z,55.40
2022-10-11T00:29:40.573Z,55.40
2022-10-11T00:30:40.564Z,55.16
2022-10-11T00:31:40.551Z,56.13
2022-10-11T00:32:40.549Z,54.72
2022-10-11T00:33:40.542Z,53.91
2022-10-11T00:34:40.544Z,53.24
2022-10-11T00:35:40.534Z,51.06
2022-10-11T00:36:40.511Z,56.00
2022-10-11T00:37:40.527Z,52.19
2022-10-11T00:38:40.510Z,53.82
2022-10-11T00:39:40.497Z,49.70
2022-10-11T00:40:40.524Z,54.04
2022-10-11T00:41:40.488Z,53.41
2022-10-11T00:42:40.480Z,51.85
2022-10-11T00:43:40.465Z,49.37
2022-10-11T00:44:40.472Z,49.98
2022-10-11T00:45:40.478Z,51.06
2022-10-11T00:46:40.466Z,51.26
2022-10-11T00:47:40.445Z,49.19
2022-10-11T00:48:40.437Z,48.47
2022-10-11T00:49:40.428Z,49.65
2022-10-11T00:50:40.441Z,50.84
2022-10-11T00:51:40.428Z,52.15
2022-10-11T00:52:40.405Z,47.56
2022-10-11T00:53:40.405Z,51.13
2022-10-11T00:54:40.396Z,52.70
2022-10-11T00:55:40.400Z,46.75
2022-10-11T00:56:40.385Z,50.48
2022-10-11T00:57:40.381Z,54.32
2022-10-11T00:58:40.376Z,50.64
2022-10-11T00:59:40.357Z,48.01
2022-10-11T01:00:40.371Z,54.80
2022-10-11T01:01:40.401Z,55.08
2022-10-11T01:02:40.332Z,53.24
2022-10-11T01:03:40.334Z,50.04
2022-10-11T01:04:40.335Z,49.07
2022-10-11T01:05:40.364Z,53.90
2022-10-11T01:06:40.315Z,51.21
2022-10-11T01:07:40.309Z,53.76
2022-10-11T01:08:40.300Z,54.36
2022-10-11T01:09:40.294Z,53.41
2022-10-11T01:10:40.288Z,53.09
2022-10-11T01:11:40.316Z,56.31
2022-10-11T01:12:40.277Z,55.92
2022-10-11T01:13:40.264Z,54.91
2022-10-11T01:14:40.262Z,53.99
2022-10-11T01:15:40.249Z,51.27
2022-10-11T01:16:40.255Z,55.20
2022-10-11T01:17:40.244Z,54.94
2022-10-11T01:18:40.229Z,56.22
2022-10-11T01:19:40.229Z,52.59
2022-10-11T01:20:40.221Z,51.81
2022-10-11T01:21:40.245Z,52.33
2022-10-11T01:22:40.209Z,53.10
2022-10-11T01:23:40.197Z,48.89
2022-10-11T01:24:40.200Z,52.36
2022-10-11T01:25:40.180Z,51.51
2022-10-11T01:26:40.172Z,51.12
2022-10-11T01:27:40.194Z,56.02
2022-10-11T01:28:40.403Z,53.66
2022-10-11T01:29:40.176Z,54.09
2022-10-11T01:30:40.155Z,54.15
2022-10-11T01:31:40.144Z,55.78
2022-10-11T01:32:40.208Z,57.79
2022-10-11T01:33:40.136Z,54.80
2022-10-11T01:34:40.128Z,58.42
2022-10-11T01:35:40.134Z,56.97
2022-10-11T01:36:40.121Z,56.30
2022-10-11T01:37:40.105Z,55.50
2022-10-11T01:38:40.104Z,55.28
2022-10-11T01:39:40.088Z,52.75
2022-10-11T01:40:40.082Z,55.83
2022-10-11T01:41:40.132Z,51.78
2022-10-11T01:42:40.060Z,53.59
2022-10-11T01:43:40.112Z,52.06
2022-10-11T01:44:40.069Z,51.18
2022-10-11T01:45:40.056Z,53.04
2022-10-11T01:46:40.706Z,54.57
2022-10-11T01:47:40.027Z,53.48
2022-10-11T01:48:40.049Z,53.03
2022-10-11T01:49:40.018Z,54.64
2022-10-11T01:50:40.008Z,54.72
2022-10-11T01:51:42.027Z,55.68
2022-10-11T01:52:40.997Z,55.05
2022-10-11T01:53:39.991Z,49.65
2022-10-11T01:55:07.416Z,56.58
2022-10-11T01:55:41.972Z,54.33
2022-10-11T01:56:39.980Z,55.12
2022-10-11T01:57:39.960Z,54.73
2022-10-11T01:58:39.944Z,54.43
2022-10-11T01:59:39.954Z,55.63
2022-10-11T02:00:39.937Z,56.69
2022-10-11T02:01:40.007Z,55.58
2022-10-11T02:02:39.933Z,56.07
2022-10-11T02:03:39.925Z,50.62
2022-10-11T02:04:39.944Z,52.20
2022-10-11T02:05:39.896Z,54.00
2022-10-11T02:06:39.907Z,56.53
2022-10-11T02:07:39.895Z,55.95
2022-10-11T02:08:39.883Z,55.90
2022-10-11T02:09:39.884Z,56.01
2022-10-11T02:10:40.019Z,55.38
2022-10-11T02:11:39.870Z,56.39
2022-10-11T02:12:39.878Z,56.22
2022-10-11T02:13:39.880Z,49.96
2022-10-11T02:14:39.920Z,55.60
2022-10-11T02:15:39.878Z,54.71
2022-10-11T02:16:39.852Z,56.55
2022-10-11T02:17:40.862Z,55.95
2022-10-11T02:18:39.852Z,55.55
2022-10-11T02:19:39.824Z,55.25
2022-10-11T02:20:39.803Z,58.91
2022-10-11T02:21:39.791Z,60.03
2022-10-11T02:22:39.820Z,58.33
2022-10-11T02:23:39.803Z,58.63
2022-10-11T02:24:40.776Z,55.32
2022-10-11T02:25:39.768Z,52.43
2022-10-11T02:26:39.767Z,52.00
2022-10-11T02:27:39.759Z,52.25
2022-10-11T02:28:39.997Z,55.09
2022-10-11T02:29:39.741Z,55.94
2022-10-11T02:30:39.733Z,54.64
2022-10-11T02:31:40.581Z,54.70
2022-10-11T02:32:39.737Z,55.62
2022-10-11T02:33:39.712Z,54.36
2022-10-11T02:34:39.709Z,58.33
2022-10-11T02:35:39.700Z,55.98
2022-10-11T02:36:39.693Z,54.60
2022-10-11T02:37:39.701Z,56.78
2022-10-11T02:38:39.683Z,54.68
2022-10-11T02:39:39.676Z,54.12
2022-10-11T02:40:39.678Z,53.46
2022-10-11T02:41:39.671Z,51.73
2022-10-11T02:42:39.656Z,56.64
2022-10-11T02:43:39.664Z,52.82
2022-10-11T02:44:39.681Z,57.42
2022-10-11T02:45:39.644Z,53.80
2022-10-11T02:46:39.638Z,59.76
2022-10-11T02:47:39.629Z,57.11
2022-10-11T02:48:39.621Z,55.19
2022-10-11T02:49:39.629Z,58.42
2022-10-11T02:50:39.605Z,61.08
2022-10-11T02:51:39.601Z,59.89
2022-10-11T02:52:39.594Z,58.90
2022-10-11T02:53:39.583Z,61.46
2022-10-11T02:54:39.576Z,60.41
2022-10-11T02:55:39.580Z,59.27
2022-10-11T02:56:39.597Z,57.57
2022-10-11T02:57:39.556Z,61.58
2022-10-11T02:58:39.560Z,59.26
2022-10-11T02:59:39.539Z,58.70
2022-10-11T03:00:39.553Z,59.11
2022-10-11T03:01:39.660Z,60.64
2022-10-11T03:02:39.532Z,59.60
2022-10-11T03:03:39.516Z,58.75
2022-10-11T03:04:39.508Z,56.32
2022-10-11T03:05:39.505Z,60.69
2022-10-11T03:06:39.514Z,62.39
2022-10-11T03:07:39.498Z,61.38
2022-10-11T03:08:39.491Z,59.34
2022-10-11T03:09:39.480Z,60.87
2022-10-11T03:10:39.476Z,60.27
2022-10-11T03:11:40.186Z,60.68
2022-10-11T03:12:39.474Z,55.76
2022-10-11T03:13:39.450Z,55.01
2022-10-11T03:14:39.451Z,56.48
2022-10-11T03:15:39.447Z,56.19
2022-10-11T03:16:39.435Z,57.21
2022-10-11T03:17:39.447Z,57.35
2022-10-11T03:18:39.418Z,56.91
2022-10-11T03:19:39.410Z,55.60
2022-10-11T03:20:39.402Z,58.28
2022-10-11T03:21:39.407Z,58.47
2022-10-11T03:22:39.397Z,57.16
2022-10-11T03:23:39.398Z,56.19
2022-10-11T03:24:39.398Z,58.46
2022-10-11T03:25:39.372Z,58.74
2022-10-11T03:26:39.370Z,58.28
2022-10-11T03:27:39.377Z,60.22
2022-10-11T03:28:39.392Z,60.74
2022-10-11T03:29:39.385Z,60.59
2022-10-11T03:30:39.350Z,60.16
2022-10-11T03:31:39.343Z,59.79
2022-10-11T03:32:39.331Z,59.40
2022-10-11T03:33:39.328Z,58.32
2022-10-11T03:34:39.318Z,59.33
2022-10-11T03:35:39.334Z,62.57
2022-10-11T03:36:39.317Z,59.00
2022-10-11T03:37:39.297Z,61.03
2022-10-11T03:38:39.298Z,61.04
2022-10-11T03:39:39.285Z,61.34
2022-10-11T03:40:39.328Z,61.03
2022-10-11T03:41:39.281Z,61.43
2022-10-11T03:42:39.266Z,61.63
2022-10-11T03:43:39.274Z,62.07
2022-10-11T03:44:39.251Z,58.87
2022-10-11T03:45:39.251Z,61.19
2022-10-11T03:46:39.242Z,60.05
2022-10-11T03:47:39.238Z,58.80
2022-10-11T03:48:39.243Z,60.45
2022-10-11T03:49:43.398Z,59.68
2022-10-11T03:50:39.210Z,59.22
2022-10-11T03:51:39.250Z,61.01
2022-10-11T03:52:39.207Z,59.78
2022-10-11T03:53:39.194Z,60.71
2022-10-11T03:54:39.194Z,59.40
2022-10-11T03:55:39.176Z,58.83
2022-10-11T03:56:39.181Z,59.83
2022-10-11T03:57:39.170Z,59.24
2022-10-11T03:58:39.166Z,58.83
2022-10-11T03:59:39.182Z,60.22
2022-10-11T04:00:39.157Z,59.61
2022-10-11T04:01:39.168Z,59.28
2022-10-11T04:02:39.456Z,58.94
2022-10-11T04:03:40.126Z,58.91
2022-10-11T04:04:39.128Z,58.35
2022-10-11T04:05:39.142Z,59.55
2022-10-11T04:06:39.113Z,60.72
2022-10-11T04:07:39.111Z,62.02
2022-10-11T04:08:39.104Z,60.66
2022-10-11T04:09:39.087Z,59.94
2022-10-11T04:10:39.112Z,59.01
2022-10-11T04:11:39.089Z,60.15
2022-10-11T04:12:39.110Z,59.52
2022-10-11T04:13:39.078Z,61.08
2022-10-11T04:14:39.089Z,58.84
2022-10-11T04:15:39.067Z,57.87
2022-10-11T04:16:39.070Z,57.35
2022-10-11T04:17:39.040Z,56.14
2022-10-11T04:18:39.031Z,57.74
2022-10-11T04:19:39.043Z,58.64
2022-10-11T04:20:39.024Z,58.24
2022-10-11T04:21:39.020Z,60.18
2022-10-11T04:22:39.005Z,60.34
2022-10-11T04:23:39.016Z,59.11
2022-10-11T04:24:38.996Z,59.56
2022-10-11T04:25:38.983Z,60.25
2022-10-11T04:26:38.985Z,59.58
2022-10-11T04:27:38.981Z,58.80
2022-10-11T04:28:39.014Z,58.47
2022-10-11T04:29:38.960Z,59.26
2022-10-11T04:30:38.955Z,59.35
2022-10-11T04:31:39.019Z,60.65
2022-10-11T04:32:39.945Z,60.97
2022-10-11T04:33:38.941Z,62.17
2022-10-11T04:34:38.937Z,61.21
2022-10-11T04:35:38.944Z,62.05
2022-10-11T04:36:38.924Z,62.08
2022-10-11T04:37:38.920Z,61.74
2022-10-11T04:38:38.925Z,62.07
2022-10-11T04:39:38.908Z,62.71
2022-10-11T04:40:38.904Z,63.43
2022-10-11T04:41:38.887Z,63.32
2022-10-11T04:42:38.884Z,63.51
2022-10-11T04:43:38.880Z,62.99
2022-10-11T04:44:38.868Z,63.21
2022-10-11T04:45:38.897Z,63.17
2022-10-11T04:46:38.856Z,61.72
2022-10-11T04:47:38.852Z,62.69
2022-10-11T04:48:38.850Z,62.52
2022-10-11T04:49:38.840Z,65.12
2022-10-11T04:50:38.832Z,63.56
2022-10-11T04:51:38.840Z,62.34
2022-10-11T04:52:38.807Z,62.36
2022-10-11T04:53:38.808Z,62.14
2022-10-11T04:54:38.799Z,62.30
2022-10-11T04:55:38.799Z,62.45
2022-10-11T04:56:38.807Z,62.91
2022-10-11T04:57:38.783Z,62.57
2022-10-11T04:58:38.788Z,61.70
2022-10-11T04:59:38.777Z,61.93
2022-10-11T05:00:38.762Z,62.54
2022-10-11T05:01:38.785Z,61.20
2022-10-11T05:02:38.764Z,62.49
2022-10-11T05:03:38.739Z,61.97
2022-10-11T05:04:38.732Z,59.84
2022-10-11T05:05:38.730Z,61.26
2022-10-11T05:06:38.712Z,62.48
2022-10-11T05:07:38.728Z,62.86
2022-10-11T05:08:38.708Z,63.35
2022-10-11T05:09:38.692Z,63.84
2022-10-11T05:10:38.687Z,62.86
2022-10-11T05:11:38.687Z,62.67
2022-10-11T05:12:38.692Z,63.46
2022-10-11T05:13:38.676Z,62.19
2022-10-11T05:14:38.668Z,62.62
2022-10-11T05:15:38.655Z,61.45
2022-10-11T05:16:38.653Z,63.07
2022-10-11T05:17:38.659Z,61.67
2022-10-11T05:18:38.632Z,62.67
2022-10-11T05:19:38.644Z,62.46
2022-10-11T05:20:38.629Z,61.50
2022-10-11T05:21:38.611Z,63.23
2022-10-11T05:22:38.613Z,62.24
2022-10-11T05:23:38.609Z,62.44
2022-10-11T05:24:38.597Z,61.98
2022-10-11T05:25:38.590Z,62.10
2022-10-11T05:26:38.588Z,61.85
2022-10-11T05:27:38.579Z,60.86
2022-10-11T05:28:38.610Z,62.92
2022-10-11T05:29:38.572Z,63.04
2022-10-11T05:30:38.628Z,63.46
2022-10-11T05:31:38.556Z,62.15
2022-10-11T05:32:38.550Z,62.30
2022-10-11T05:33:38.539Z,61.90
2022-10-11T05:34:38.528Z,61.30
2022-10-11T05:35:38.537Z,61.60
2022-10-11T05:36:38.521Z,61.87
2022-10-11T05:37:38.527Z,62.39
2022-10-11T05:38:38.503Z,63.77
2022-10-11T05:39:38.499Z,63.50
2022-10-11T05:40:38.496Z,62.47
2022-10-11T05:41:38.494Z,62.41
2022-10-11T05:42:38.483Z,62.94
2022-10-11T05:43:38.475Z,63.98
2022-10-11T05:44:38.468Z,64.74
2022-10-11T05:45:38.454Z,63.67
2022-10-11T05:46:38.472Z,65.15
2022-10-11T05:47:38.448Z,64.54
2022-10-11T05:48:38.444Z,63.02
2022-10-11T05:49:38.436Z,62.47
2022-10-11T05:50:38.428Z,62.51
2022-10-11T05:51:38.440Z,63.29
2022-10-11T05:52:38.412Z,63.47
2022-10-11T05:53:38.402Z,63.23
2022-10-11T05:54:38.403Z,62.68
2022-10-11T05:55:38.396Z,63.04
2022-10-11T05:56:38.391Z,63.78
2022-10-11T05:57:38.384Z,62.83
2022-10-11T05:58:38.406Z,62.62
2022-10-11T05:59:38.367Z,61.79
2022-10-11T06:00:38.369Z,62.00
2022-10-11T06:01:38.477Z,62.80
2022-10-11T06:02:38.355Z,63.34
2022-10-11T06:03:38.352Z,63.47
2022-10-11T06:04:38.326Z,63.04
2022-10-11T06:05:38.334Z,62.43
2022-10-11T06:06:38.323Z,62.25
2022-10-11T06:07:38.324Z,63.19
2022-10-11T06:08:38.316Z,65.22
2022-10-11T06:09:38.319Z,64.04
2022-10-11T06:10:38.302Z,62.86
2022-10-11T06:11:38.295Z,61.88
2022-10-11T06:12:38.276Z,61.12
2022-10-11T06:13:38.282Z,62.24
2022-10-11T06:14:38.287Z,61.74
2022-10-11T06:15:38.267Z,61.77
2022-10-11T06:16:38.260Z,61.36
2022-10-11T06:17:38.255Z,62.28
2022-10-11T06:18:38.240Z,61.06
2022-10-11T06:19:38.235Z,61.82
2022-10-11T06:20:38.252Z,60.89
2022-10-11T06:21:38.221Z,61.66
2022-10-11T06:22:38.211Z,60.88
2022-10-11T06:23:38.212Z,60.97
2022-10-11T06:24:38.194Z,61.08
2022-10-11T06:25:38.211Z,61.99
2022-10-11T06:26:38.191Z,63.15
2022-10-11T06:27:38.178Z,62.96
2022-10-11T06:28:38.268Z,62.37
2022-10-11T06:29:38.188Z,61.31
2022-10-11T06:30:38.160Z,61.48
2022-10-11T06:31:38.171Z,60.90
2022-10-11T06:32:38.155Z,61.25
2022-10-11T06:33:38.154Z,62.28
2022-10-11T06:34:38.139Z,61.48
2022-10-11T06:35:38.136Z,62.33
2022-10-11T06:36:38.148Z,61.80
2022-10-11T06:37:38.132Z,60.44
2022-10-11T06:38:43.819Z,60.66
2022-10-11T06:39:40.191Z,62.06
2022-10-11T06:40:38.107Z,61.23
2022-10-11T06:41:38.096Z,59.98
2022-10-11T06:42:38.125Z,60.69
2022-10-11T06:43:38.080Z,61.33
2022-10-11T06:44:38.103Z,59.60
2022-10-11T06:45:38.069Z,58.91
2022-10-11T06:46:38.067Z,59.01
2022-10-11T06:47:38.131Z,59.99
2022-10-11T06:48:38.072Z,61.65
2022-10-11T06:49:38.038Z,59.75
2022-10-11T06:50:58.435Z,62.00
2022-10-11T06:51:40.030Z,61.10
2022-10-11T06:52:38.033Z,59.92
2022-10-11T06:53:38.033Z,59.83
2022-10-11T06:54:42.506Z,60.74
2022-10-11T06:55:40.000Z,59.92
2022-10-11T06:56:37.998Z,60.62
2022-10-11T06:57:37.984Z,60.43
2022-10-11T06:58:37.986Z,59.96
2022-10-11T06:59:37.974Z,58.96
2022-10-11T07:00:38.198Z,59.55
2022-10-11T07:01:38.059Z,58.63
2022-10-11T07:02:37.952Z,58.79
2022-10-11T07:03:37.963Z,59.57
2022-10-11T07:04:37.958Z,58.85
2022-10-11T07:05:37.950Z,59.78
2022-10-11T07:06:37.962Z,60.00
2022-10-11T07:07:37.921Z,59.54
2022-10-11T07:08:37.923Z,59.00
2022-10-11T07:09:37.906Z,59.53
2022-10-11T07:10:37.918Z,60.33
2022-10-11T07:11:37.900Z,60.68
2022-10-11T07:12:37.911Z,59.98
2022-10-11T07:13:37.902Z,62.39
2022-10-11T07:14:37.899Z,60.80
2022-10-11T07:15:37.888Z,59.54
2022-10-11T07:16:37.937Z,59.98
2022-10-11T07:17:37.874Z,59.83
2022-10-11T07:18:37.850Z,59.12
2022-10-11T07:19:37.861Z,59.01
2022-10-11T07:20:37.880Z,58.19
2022-10-11T07:21:37.862Z,59.69
2022-10-11T07:22:37.850Z,59.12
2022-10-11T07:23:37.855Z,59.33
2022-10-11T07:24:37.842Z,58.41
2022-10-11T07:25:37.867Z,58.04
2022-10-11T07:26:38.302Z,58.74
2022-10-11T07:27:38.791Z,57.31
2022-10-11T07:28:37.834Z,56.43
2022-10-11T07:29:37.819Z,58.09
2022-10-11T07:30:37.771Z,58.21
2022-10-11T07:31:37.758Z,57.98
2022-10-11T07:32:37.761Z,58.46
2022-10-11T07:33:37.739Z,57.83
2022-10-11T07:34:37.743Z,57.41
2022-10-11T07:35:37.736Z,56.78
2022-10-11T07:36:37.739Z,57.63
2022-10-11T07:37:37.715Z,56.96
2022-10-11T07:38:37.727Z,55.93
2022-10-11T07:39:37.701Z,55.91
2022-10-11T07:40:37.695Z,55.61
2022-10-11T07:41:41.811Z,54.11
2022-10-11T07:42:37.702Z,56.31
2022-10-11T07:43:37.678Z,56.25
2022-10-11T07:44:37.662Z,54.79
2022-10-11T07:45:37.651Z,55.09
2022-10-11T07:46:37.656Z,54.98
2022-10-11T07:47:37.659Z,55.70
2022-10-11T07:48:37.666Z,55.29
2022-10-11T07:49:37.642Z,54.69
2022-10-11T07:50:37.630Z,56.46
2022-10-11T07:51:37.622Z,56.96
2022-10-11T07:52:37.619Z,55.50
2022-10-11T07:53:37.606Z,55.00
2022-10-11T07:54:37.611Z,55.64
2022-10-11T07:55:37.587Z,56.48
2022-10-11T07:56:37.585Z,55.12
2022-10-11T07:57:37.578Z,54.28
2022-10-11T07:58:37.575Z,54.88
2022-10-11T07:59:37.563Z,55.56
2022-10-11T08:00:37.596Z,54.64
2022-10-11T08:01:37.604Z,55.16
2022-10-11T08:02:38.537Z,55.77
2022-10-11T08:03:37.540Z,55.21
2022-10-11T08:04:37.576Z,56.02
2022-10-11T08:05:37.532Z,57.34
2022-10-11T08:06:37.551Z,57.06
2022-10-11T08:07:37.522Z,55.95
2022-10-11T08:08:37.517Z,57.99
2022-10-11T08:09:37.503Z,56.90
2022-10-11T08:10:37.504Z,54.49
2022-10-11T08:11:37.479Z,54.66
2022-10-11T08:12:37.504Z,56.51
2022-10-11T08:13:37.487Z,55.37
2022-10-11T08:14:37.461Z,54.62
2022-10-11T08:15:37.460Z,55.99
2022-10-11T08:16:37.456Z,53.38
2022-10-11T08:17:37.480Z,55.69
2022-10-11T08:18:37.457Z,54.26
2022-10-11T08:19:37.432Z,53.52
2022-10-11T08:20:37.427Z,54.23
2022-10-11T08:21:37.425Z,53.93
2022-10-11T08:22:37.426Z,52.81
2022-10-11T08:23:37.414Z,55.69
2022-10-11T08:24:38.428Z,54.48
2022-10-11T08:25:38.389Z,54.64
2022-10-11T08:26:37.383Z,54.16
2022-10-11T08:27:37.386Z,54.74
2022-10-11T08:28:37.409Z,56.25
2022-10-11T08:29:37.365Z,53.06
2022-10-11T08:30:37.367Z,53.67
2022-10-11T08:31:37.370Z,57.22
2022-10-11T08:32:37.356Z,56.45
2022-10-11T08:33:37.337Z,57.38
2022-10-11T08:34:37.337Z,55.79
2022-10-11T08:35:37.318Z,54.54
2022-10-11T08:36:37.322Z,54.16
2022-10-11T08:37:37.318Z,55.78
2022-10-11T08:38:37.294Z,56.77
2022-10-11T08:39:37.294Z,54.25
2022-10-11T08:40:37.299Z,56.03
2022-10-11T08:41:37.333Z,56.70
2022-10-11T08:42:37.275Z,54.36
2022-10-11T08:43:37.267Z,55.38
2022-10-11T08:45:05.392Z,54.90
2022-10-11T08:45:39.264Z,54.68
2022-10-11T08:46:37.242Z,56.11
2022-10-11T08:47:37.268Z,56.11
2022-10-11T08:48:37.245Z,56.55
2022-10-11T08:49:37.252Z,57.04
2022-10-11T08:50:37.237Z,55.86
2022-10-11T08:51:37.224Z,55.96
2022-10-11T08:52:37.258Z,57.14
2022-10-11T08:53:37.217Z,56.61
2022-10-11T08:54:37.225Z,55.79
2022-10-11T08:55:37.184Z,56.50
2022-10-11T08:56:37.185Z,55.74
2022-10-11T08:57:37.180Z,55.82
2022-10-11T08:58:37.184Z,55.28
2022-10-11T08:59:37.185Z,55.14
2022-10-11T09:00:37.173Z,55.58
2022-10-11T09:01:37.379Z,56.38
2022-10-11T09:03:03.090Z,56.32
2022-10-11T09:03:39.198Z,54.95
2022-10-11T09:04:37.152Z,55.98
2022-10-11T09:05:37.133Z,55.44
2022-10-11T09:06:37.127Z,54.87
2022-10-11T09:07:37.198Z,54.38
2022-10-11T09:08:37.101Z,55.75
2022-10-11T09:09:38.104Z,55.97
2022-10-11T09:10:37.104Z,55.49
2022-10-11T09:11:37.082Z,56.45
2022-10-11T09:12:40.675Z,54.75
2022-10-11T09:13:38.060Z,53.24
2022-10-11T09:14:37.062Z,55.76
2022-10-11T09:15:37.053Z,56.22
2022-10-11T09:16:37.059Z,56.29
2022-10-11T09:17:37.068Z,54.86
2022-10-11T09:18:37.043Z,55.33
2022-10-11T09:19:37.036Z,54.63
2022-10-11T09:20:37.024Z,56.12
2022-10-11T09:21:37.019Z,57.59
2022-10-11T09:22:37.041Z,57.11
2022-10-11T09:23:37.035Z,55.68
2022-10-11T09:24:37.007Z,56.65
2022-10-11T09:25:36.988Z,56.26
2022-10-11T09:26:37.048Z,55.13
2022-10-11T09:28:01.116Z,56.05
2022-10-11T09:28:39.031Z,55.90
2022-10-11T09:29:36.964Z,54.79
2022-10-11T09:30:36.958Z,54.55
2022-10-11T09:31:36.965Z,57.18
2022-10-11T09:32:36.941Z,55.28
2022-10-11T09:33:36.960Z,55.55
2022-10-11T09:34:36.949Z,54.30
2022-10-11T09:35:36.964Z,55.92
2022-10-11T09:36:36.922Z,56.14
2022-10-11T09:37:36.925Z,57.02
2022-10-11T09:38:36.921Z,55.88
2022-10-11T09:39:36.907Z,54.52
2022-10-11T09:40:36.900Z,55.74
2022-10-11T09:41:36.884Z,56.02
2022-10-11T09:42:36.884Z,54.98
2022-10-11T09:43:36.888Z,55.86
2022-10-11T09:44:36.873Z,57.00
2022-10-11T09:45:36.864Z,54.54
2022-10-11T09:46:36.855Z,55.30
2022-10-11T09:47:36.852Z,55.23
2022-10-11T09:48:36.840Z,54.16
2022-10-11T09:49:36.843Z,54.69
2022-10-11T09:50:36.832Z,54.33
2022-10-11T09:51:36.813Z,56.78
2022-10-11T09:52:36.812Z,65.85
2022-10-11T09:53:36.820Z,62.63
2022-10-11T09:54:36.820Z,53.96
2022-10-11T09:55:36.798Z,54.47
2022-10-11T09:56:36.804Z,54.02
2022-10-11T09:57:36.792Z,52.57
2022-10-11T09:58:36.812Z,54.05
2022-10-11T09:59:36.791Z,54.13
2022-10-11T10:00:36.768Z,55.46
2022-10-11T10:01:36.797Z,56.29
2022-10-11T10:02:37.760Z,55.10
2022-10-11T10:03:36.771Z,57.58
2022-10-11T10:04:52.265Z,54.36
2022-10-11T10:05:37.751Z,52.19
2022-10-11T10:06:36.720Z,50.29
2022-10-11T10:07:36.741Z,51.45
2022-10-11T10:08:36.721Z,53.45
2022-10-11T10:09:36.708Z,51.32
2022-10-11T10:10:36.710Z,53.70
2022-10-11T10:11:36.698Z,52.57
2022-10-11T10:12:36.686Z,51.71
2022-10-11T10:13:36.681Z,53.02
2022-10-11T10:14:36.672Z,53.83
2022-10-11T10:15:36.684Z,53.97
2022-10-11T10:16:36.653Z,53.91
2022-10-11T10:17:36.650Z,53.08
2022-10-11T10:18:36.646Z,53.35
2022-10-11T10:19:38.924Z,51.16
2022-10-11T10:20:37.651Z,50.75
2022-10-11T10:21:36.627Z,52.60
2022-10-11T10:22:36.619Z,51.73
2022-10-11T10:23:36.619Z,52.31
2022-10-11T10:24:36.604Z,51.41
2022-10-11T10:25:40.845Z,51.65
2022-10-11T10:26:37.600Z,51.43
2022-10-11T10:27:36.589Z,50.89
2022-10-11T10:28:36.654Z,52.17
2022-10-11T10:29:36.603Z,51.45
2022-10-11T10:30:36.644Z,49.88
2022-10-11T10:31:54.961Z,51.77
2022-10-11T10:32:38.561Z,51.04
2022-10-11T10:33:36.551Z,48.68
2022-10-11T10:34:36.552Z,51.07
2022-10-11T10:35:36.567Z,49.62
2022-10-11T10:36:36.537Z,50.43
2022-10-11T10:37:36.538Z,53.18
2022-10-11T10:38:36.527Z,51.88
2022-10-11T10:39:36.531Z,53.60
2022-10-11T10:40:36.555Z,51.81
2022-10-11T10:41:36.519Z,53.10
2022-10-11T10:42:36.520Z,54.28
2022-10-11T10:43:36.519Z,54.52
2022-10-11T10:44:36.495Z,53.03
2022-10-11T10:45:36.500Z,54.34
2022-10-11T10:46:36.487Z,55.03
2022-10-11T10:47:36.463Z,54.54
2022-10-11T10:49:11.719Z,52.12
2022-10-11T10:49:54.979Z,52.58
2022-10-11T10:50:38.451Z,52.53
2022-10-11T10:51:36.486Z,51.92
2022-10-11T10:52:36.444Z,53.76
2022-10-11T10:53:36.437Z,54.24
2022-10-11T10:54:36.436Z,51.61
2022-10-11T10:55:36.564Z,52.10
2022-10-11T10:56:36.485Z,51.94
2022-10-11T10:57:36.417Z,51.71
2022-10-11T10:58:36.491Z,50.53
2022-10-11T10:59:36.403Z,51.35
2022-10-11T11:00:36.409Z,49.65
2022-10-11T11:01:36.451Z,52.35
2022-10-11T11:02:40.869Z,52.43
2022-10-11T11:03:38.397Z,53.97
2022-10-11T11:04:36.379Z,51.65
2022-10-11T11:05:36.404Z,51.37
2022-10-11T11:06:36.748Z,51.90
2022-10-11T11:07:36.415Z,52.55
2022-10-11T11:08:36.359Z,53.77
2022-10-11T11:09:36.367Z,52.61
2022-10-11T11:10:36.376Z,51.88
2022-10-11T11:11:36.381Z,54.00
2022-10-11T11:12:36.359Z,54.12
2022-10-11T11:13:36.328Z,52.97
2022-10-11T11:14:36.328Z,53.15
2022-10-11T11:15:38.158Z,53.57
2022-10-11T11:16:37.345Z,51.09
2022-10-11T11:17:36.308Z,50.47
2022-10-11T11:18:36.308Z,53.24
2022-10-11T11:19:36.324Z,52.22
2022-10-11T11:20:36.291Z,53.64
2022-10-11T11:21:41.248Z,52.58
2022-10-11T11:22:38.281Z,52.34
2022-10-11T11:23:36.311Z,53.98
2022-10-11T11:24:36.259Z,53.36
2022-10-11T11:25:36.283Z,51.80
2022-10-11T11:26:37.810Z,52.35
2022-10-11T11:27:36.248Z,50.62
2022-10-11T11:28:36.296Z,52.35
2022-10-11T11:29:36.307Z,53.65
2022-10-11T11:30:36.241Z,53.30
2022-10-11T11:31:36.248Z,52.55
2022-10-11T11:32:36.232Z,52.46
2022-10-11T11:33:36.230Z,51.41
2022-10-11T11:34:36.205Z,51.68
2022-10-11T11:35:36.202Z,51.98
2022-10-11T11:36:36.208Z,53.49
2022-10-11T11:37:36.193Z,50.73
2022-10-11T11:38:36.204Z,51.81
2022-10-11T11:39:36.248Z,50.74
2022-10-11T11:40:36.220Z,51.39
2022-10-11T11:41:36.220Z,52.28
2022-10-11T11:42:36.172Z,52.38
2022-10-11T11:43:36.194Z,53.55
2022-10-11T11:44:36.165Z,52.60
2022-10-11T11:45:36.178Z,51.04
2022-10-11T11:46:36.244Z,51.33
2022-10-11T11:47:36.128Z,50.77
2022-10-11T11:48:36.127Z,49.56
2022-10-11T11:49:36.187Z,51.16
2022-10-11T11:50:37.149Z,50.53
2022-10-11T11:51:36.781Z,51.02
2022-10-11T11:52:36.152Z,50.34
2022-10-11T11:53:36.116Z,51.60
2022-10-11T11:54:36.244Z,51.73
2022-10-11T11:55:36.126Z,51.02
2022-10-11T11:56:36.100Z,50.33
2022-10-11T11:57:36.137Z,50.50
2022-10-11T11:58:36.097Z,50.82
2022-10-11T11:59:36.104Z,49.39
2022-10-11T12:00:36.097Z,48.14
2022-10-11T12:01:36.129Z,51.86
2022-10-11T12:02:36.047Z,52.21
2022-10-11T12:03:41.279Z,50.50
2022-10-11T12:04:38.052Z,51.87
2022-10-11T12:05:36.096Z,51.55
2022-10-11T12:06:40.317Z,49.06
2022-10-11T12:07:38.026Z,49.95
2022-10-11T12:08:36.059Z,51.74
2022-10-11T12:09:36.036Z,49.54
2022-10-11T12:10:36.038Z,51.63
2022-10-11T12:11:36.001Z,50.46
2022-10-11T12:12:35.997Z,52.94
2022-10-11T12:13:36.000Z,51.80
2022-10-11T12:14:36.000Z,53.92
2022-10-11T12:15:35.968Z,50.69
2022-10-11T12:16:35.972Z,49.83
2022-10-11T12:17:35.971Z,50.48
2022-10-11T12:18:39.350Z,49.76
2022-10-11T12:19:37.978Z,49.25
2022-10-11T12:20:35.967Z,50.02
2022-10-11T12:21:35.988Z,49.77
2022-10-11T12:22:35.945Z,49.01
2022-10-11T12:23:35.940Z,50.79
2022-10-11T12:24:35.932Z,48.26
2022-10-11T12:25:35.929Z,48.55
2022-10-11T12:26:35.929Z,50.53
2022-10-11T12:27:35.937Z,48.34
2022-10-11T12:28:35.976Z,53.30
2022-10-11T12:29:35.923Z,50.85
2022-10-11T12:30:36.219Z,50.57
2022-10-11T12:31:35.915Z,51.41
2022-10-11T12:32:35.897Z,52.43
2022-10-11T12:33:35.892Z,55.04
2022-10-11T12:34:37.367Z,50.26
2022-10-11T12:35:35.887Z,49.51
2022-10-11T12:36:35.876Z,50.38
2022-10-11T12:37:35.876Z,52.48
2022-10-11T12:38:35.868Z,52.29
2022-10-11T12:39:35.888Z,50.43
2022-10-11T12:40:35.891Z,54.97
2022-10-11T12:41:35.847Z,55.01
2022-10-11T12:42:35.859Z,54.14
2022-10-11T12:43:35.835Z,56.09
2022-10-11T12:44:35.841Z,55.15
2022-10-11T12:45:35.883Z,53.95
2022-10-11T12:46:35.825Z,56.91
2022-10-11T12:47:35.827Z,54.99
2022-10-11T12:48:40.636Z,54.42
2022-10-11T12:49:37.807Z,55.02
2022-10-11T12:50:35.817Z,51.23
2022-10-11T12:51:35.803Z,50.34
2022-10-11T12:52:35.843Z,50.21